createdAt,value
2017-08-05T00:00:10.277Z,50.30
2017-08-05T00:02:38.572Z,50.30
2017-08-05T00:05:06.189Z,50.30
2017-08-05T00:07:33.708Z,50.40
2017-08-05T00:10:01.220Z,50.30
2017-08-05T00:12:28.731Z,50.40
2017-08-05T00:14:56.261Z,50.30
2017-08-05T00:17:24.536Z,50.80
2017-08-05T00:19:52.866Z,51.10
2017-08-05T00:22:20.377Z,50.40
2017-08-05T00:24:48.657Z,50.40
2017-08-05T00:27:16.935Z,50.50
2017-08-05T00:29:45.280Z,50.50
2017-08-05T00:32:12.874Z,50.40
2017-08-05T00:34:41.156Z,50.50
2017-08-05T00:37:08.670Z,50.50
2017-08-05T00:39:36.187Z,50.50
2017-08-05T00:42:03.678Z,50.50
2017-08-05T00:44:31.226Z,50.50
2017-08-05T00:46:58.733Z,50.50
2017-08-05T00:49:26.262Z,50.50
2017-08-05T00:51:53.774Z,50.50
2017-08-05T00:54:21.355Z,50.60
2017-08-05T00:56:48.882Z,50.60
2017-08-05T00:59:17.157Z,50.60
2017-08-05T01:01:45.439Z,50.60
2017-08-05T01:04:13.729Z,50.60
2017-08-05T01:06:41.237Z,50.60
2017-08-05T01:09:08.751Z,50.70
2017-08-05T01:11:36.263Z,50.60
2017-08-05T01:14:03.887Z,50.70
2017-08-05T01:16:31.480Z,50.70
2017-08-05T01:18:59.055Z,50.60
2017-08-05T01:21:26.615Z,50.70
2017-08-05T01:23:54.233Z,50.70
2017-08-05T01:26:21.750Z,50.70
2017-08-05T01:28:49.260Z,50.70
2017-08-05T01:31:16.745Z,50.70
2017-08-05T01:33:44.260Z,50.70
2017-08-05T01:36:11.797Z,50.70
2017-08-05T01:38:40.073Z,50.80
2017-08-05T01:41:08.368Z,50.90
2017-08-05T01:43:35.974Z,50.80
2017-08-05T01:46:03.615Z,50.90
2017-08-05T01:48:31.159Z,50.80
2017-08-05T01:50:58.682Z,50.90
2017-08-05T01:53:26.176Z,50.90
2017-08-05T01:55:53.693Z,50.90
2017-08-05T01:58:21.243Z,51.00
2017-08-05T02:00:48.751Z,51.00
2017-08-05T02:03:16.411Z,50.90
2017-08-05T02:05:43.917Z,51.00
2017-08-05T02:08:11.430Z,51.00
2017-08-05T02:10:38.942Z,51.00
2017-08-05T02:13:06.478Z,51.00
2017-08-05T02:15:33.978Z,50.90
2017-08-05T02:18:01.476Z,50.90
2017-08-05T02:20:28.997Z,51.00
2017-08-05T02:22:56.493Z,51.00
2017-08-05T02:25:24.084Z,51.00
2017-08-05T02:27:51.609Z,51.00
2017-08-05T02:30:19.151Z,51.00
2017-08-05T02:32:47.445Z,51.10
2017-08-05T02:35:14.946Z,51.10
2017-08-05T02:37:42.443Z,51.00
2017-08-05T02:40:10.719Z,51.10
2017-08-05T02:42:39.062Z,51.90
2017-08-05T02:45:06.682Z,51.10
2017-08-05T02:47:34.181Z,51.30
2017-08-05T02:50:01.683Z,51.30
2017-08-05T02:52:30.032Z,51.30
2017-08-05T02:54:57.558Z,51.20
2017-08-05T02:57:25.078Z,51.30
2017-08-05T02:59:53.340Z,51.10
2017-08-05T03:02:20.862Z,51.20
2017-08-05T03:04:48.366Z,51.30
2017-08-05T03:07:16.625Z,51.50
2017-08-05T03:09:44.146Z,51.30
2017-08-05T03:12:11.748Z,51.40
2017-08-05T03:14:39.449Z,51.50
2017-08-05T03:17:06.973Z,51.40
2017-08-05T03:19:34.484Z,51.40
2017-08-05T03:22:02.052Z,51.60
2017-08-05T03:24:29.728Z,51.40
2017-08-05T03:26:57.227Z,51.40
2017-08-05T03:29:25.485Z,51.40
2017-08-05T03:31:52.997Z,51.30
2017-08-05T03:34:20.514Z,51.40
2017-08-05T03:36:48.011Z,51.40
2017-08-05T03:39:15.509Z,51.50
2017-08-05T03:41:43.056Z,51.50
2017-08-05T03:44:10.566Z,51.50
2017-08-05T03:46:38.858Z,51.50
2017-08-05T03:49:07.156Z,51.50
2017-08-05T03:51:34.758Z,51.50
2017-08-05T03:54:02.290Z,51.50
2017-08-05T03:56:29.791Z,51.50
2017-08-05T03:58:58.108Z,51.60
2017-08-05T04:01:25.646Z,51.60
2017-08-05T04:03:53.922Z,51.60
2017-08-05T04:06:21.446Z,51.50
2017-08-05T04:08:48.966Z,51.80
2017-08-05T04:11:16.470Z,51.60
2017-08-05T04:13:43.993Z,51.60
2017-08-05T04:16:11.493Z,51.70
2017-08-05T04:18:39.003Z,51.60
2017-08-05T04:21:06.553Z,51.70
2017-08-05T04:23:34.156Z,51.70
2017-08-05T04:26:01.775Z,51.70
2017-08-05T04:28:29.341Z,52.60
2017-08-05T04:30:56.911Z,51.80
2017-08-05T04:33:24.422Z,51.80
2017-08-05T04:35:52.103Z,51.80
2017-08-05T04:38:19.739Z,51.70
2017-08-05T04:40:47.258Z,51.70
2017-08-05T04:43:14.776Z,51.80
2017-08-05T04:45:43.040Z,52.20
2017-08-05T04:48:10.533Z,51.80
2017-08-05T04:50:38.056Z,51.80
2017-08-05T04:53:05.570Z,51.70
2017-08-05T04:55:33.087Z,51.80
2017-08-05T04:58:01.426Z,51.90
2017-08-05T05:00:29.096Z,51.90
2017-08-05T05:02:56.593Z,51.90
2017-08-05T05:05:24.877Z,51.90
2017-08-05T05:07:53.161Z,51.90
2017-08-05T05:10:21.467Z,52.00
2017-08-05T05:12:48.990Z,51.90
2017-08-05T05:15:17.272Z,51.90
2017-08-05T05:17:45.258Z,51.90
2017-08-05T05:20:12.764Z,51.90
2017-08-05T05:22:40.273Z,51.90
2017-08-05T05:25:07.802Z,51.90
2017-08-05T05:27:35.450Z,51.90
2017-08-05T05:30:02.970Z,51.90
2017-08-05T05:32:30.468Z,51.80
2017-08-05T05:34:58.024Z,51.90
2017-08-05T05:37:25.497Z,51.90
2017-08-05T05:39:53.011Z,51.90
2017-08-05T05:42:20.529Z,51.90
2017-08-05T05:44:48.821Z,52.00
2017-08-05T05:47:16.334Z,52.00
2017-08-05T05:49:43.890Z,52.00
2017-08-05T05:52:11.404Z,52.00
2017-08-05T05:54:38.906Z,52.00
2017-08-05T05:57:06.516Z,52.00
2017-08-05T05:59:34.784Z,52.00
2017-08-05T06:02:03.064Z,52.00
2017-08-05T06:04:31.348Z,52.00
2017-08-05T06:06:59.823Z,52.00
2017-08-05T06:09:28.089Z,52.00
2017-08-05T06:11:55.734Z,52.00
2017-08-05T06:14:23.265Z,52.00
2017-08-05T06:16:50.878Z,52.10
2017-08-05T06:19:19.153Z,53.00
2017-08-05T06:21:46.689Z,52.30
2017-08-05T06:24:14.219Z,52.00
2017-08-05T06:26:41.745Z,52.20
2017-08-05T06:29:09.268Z,52.10
2017-08-05T06:31:36.843Z,52.00
2017-08-05T06:34:04.401Z,51.90
2017-08-05T06:36:31.893Z,52.00
2017-08-05T06:38:59.425Z,52.00
2017-08-05T06:41:26.949Z,52.00
2017-08-05T06:43:54.473Z,52.00
2017-08-05T06:46:22.923Z,52.20
2017-08-05T06:48:50.422Z,52.00
2017-08-05T06:51:18.036Z,52.00
2017-08-05T06:53:45.534Z,52.10
2017-08-05T06:56:13.043Z,52.00
2017-08-05T06:58:40.552Z,52.00
2017-08-05T07:01:08.073Z,52.20
2017-08-05T07:03:35.605Z,52.10
2017-08-05T07:06:03.113Z,52.20
2017-08-05T07:08:31.406Z,52.90
2017-08-05T07:10:59.759Z,52.10
2017-08-05T07:13:27.273Z,52.10
2017-08-05T07:15:54.773Z,52.10
2017-08-05T07:18:22.278Z,52.20
2017-08-05T07:20:49.835Z,52.20
2017-08-05T07:23:17.336Z,52.20
2017-08-05T07:25:44.838Z,52.20
2017-08-05T07:28:12.365Z,52.10
2017-08-05T07:30:39.968Z,52.20
2017-08-05T07:33:07.541Z,52.20
2017-08-05T07:35:35.185Z,52.20
2017-08-05T07:38:02.708Z,52.20
2017-08-05T07:40:30.210Z,52.20
2017-08-05T07:42:57.770Z,52.20
2017-08-05T07:45:25.278Z,52.20
2017-08-05T07:47:52.841Z,52.30
2017-08-05T07:50:20.336Z,52.20
2017-08-05T07:52:48.639Z,52.30
2017-08-05T07:55:16.171Z,52.30
2017-08-05T07:57:44.464Z,52.40
2017-08-05T08:00:12.866Z,52.40
2017-08-05T08:02:40.435Z,52.40
2017-08-05T08:05:08.007Z,52.40
2017-08-05T08:07:35.616Z,52.40
2017-08-05T08:10:04.135Z,52.40
2017-08-05T08:12:31.635Z,52.40
2017-08-05T08:14:59.145Z,52.30
2017-08-05T08:17:26.674Z,52.40
2017-08-05T08:19:54.892Z,53.20
2017-08-05T08:22:22.454Z,52.40
2017-08-05T08:24:49.956Z,52.40
2017-08-05T08:27:17.532Z,52.40
2017-08-05T08:29:46.019Z,52.50
2017-08-05T08:32:13.523Z,52.50
2017-08-05T08:34:41.048Z,52.50
2017-08-05T08:37:08.597Z,52.50
2017-08-05T08:39:36.932Z,52.50
2017-08-05T08:42:04.489Z,52.40
2017-08-05T08:44:31.966Z,53.30
2017-08-05T08:46:59.526Z,52.50
2017-08-05T08:49:27.098Z,52.50
2017-08-05T08:51:54.620Z,52.60
2017-08-05T08:54:22.157Z,52.60
2017-08-05T08:56:49.696Z,52.60
2017-08-05T08:59:17.980Z,52.60
2017-08-05T09:01:46.299Z,52.50
2017-08-05T09:04:13.807Z,52.40
2017-08-05T09:06:42.092Z,52.50
2017-08-05T09:09:10.410Z,52.50
2017-08-05T09:11:37.969Z,52.50
2017-08-05T09:14:05.616Z,52.40
2017-08-05T09:16:33.180Z,52.50
2017-08-05T09:19:00.708Z,52.50
2017-08-05T09:21:29.006Z,52.60
2017-08-05T09:23:56.521Z,52.50
2017-08-05T09:26:24.049Z,52.60
2017-08-05T09:28:51.733Z,52.50
2017-08-05T09:31:19.267Z,52.70
2017-08-05T09:33:46.901Z,52.60
2017-08-05T09:36:14.447Z,52.60
2017-08-05T09:38:42.790Z,52.60
2017-08-05T09:41:10.300Z,52.50
2017-08-05T09:43:37.853Z,52.60
2017-08-05T09:46:06.138Z,52.60
2017-08-05T09:48:33.707Z,52.60
2017-08-05T09:51:01.394Z,52.60
2017-08-05T09:53:28.964Z,52.60
2017-08-05T09:55:56.580Z,52.50
2017-08-05T09:58:24.118Z,52.60
2017-08-05T10:00:51.646Z,52.50
2017-08-05T10:03:19.207Z,52.40
2017-08-05T10:05:46.730Z,52.50
2017-08-05T10:08:14.247Z,52.40
2017-08-05T10:10:41.745Z,52.50
2017-08-05T10:13:09.289Z,52.40
2017-08-05T10:15:37.559Z,52.40
2017-08-05T10:18:05.079Z,52.40
2017-08-05T10:20:32.589Z,52.50
2017-08-05T10:23:00.118Z,51.80
2017-08-05T10:25:27.655Z,51.60
2017-08-05T10:27:55.362Z,51.40
2017-08-05T10:30:22.879Z,51.30
2017-08-05T10:32:50.424Z,51.60
2017-08-05T10:35:17.952Z,51.50
2017-08-05T10:37:46.270Z,51.70
2017-08-05T10:40:13.785Z,51.60
2017-08-05T10:42:42.075Z,52.00
2017-08-05T10:45:09.586Z,52.00
2017-08-05T10:47:37.132Z,51.80
2017-08-05T10:50:04.646Z,51.90
2017-08-05T10:52:32.158Z,51.80
2017-08-05T10:54:59.677Z,51.80
2017-08-05T10:57:27.196Z,52.00
2017-08-05T10:59:54.726Z,51.90
2017-08-05T11:02:22.239Z,52.00
2017-08-05T11:04:50.524Z,52.70
2017-08-05T11:07:18.036Z,52.60
2017-08-05T11:09:45.552Z,52.50
2017-08-05T11:12:13.049Z,53.00
2017-08-05T11:14:40.601Z,53.30
2017-08-05T11:17:08.197Z,53.50
2017-08-05T11:19:35.747Z,53.50
2017-08-05T11:22:03.274Z,53.90
2017-08-05T11:24:30.794Z,54.70
2017-08-05T11:26:59.088Z,54.70
2017-08-05T11:29:26.613Z,54.70
2017-08-05T11:31:54.944Z,55.40
2017-08-05T11:34:22.449Z,55.50
2017-08-05T11:36:50.754Z,57.50
2017-08-05T11:39:19.043Z,57.70
2017-08-05T11:41:46.562Z,57.60
2017-08-05T11:44:14.278Z,57.60
2017-08-05T11:46:41.793Z,57.30
2017-08-05T11:49:09.364Z,57.30
2017-08-05T11:51:37.650Z,58.70
2017-08-05T11:54:05.178Z,57.90
2017-08-05T11:56:32.724Z,58.00
2017-08-05T11:59:00.311Z,58.50
2017-08-05T12:01:27.828Z,59.20
2017-08-05T12:03:55.347Z,59.10
2017-08-05T12:06:23.635Z,59.50
2017-08-05T12:08:51.180Z,59.50
2017-08-05T12:11:19.461Z,59.10
2017-08-05T12:13:47.739Z,58.90
2017-08-05T12:16:17.008Z,59.50
2017-08-05T12:18:44.513Z,59.40
2017-08-05T12:21:12.025Z,59.50
2017-08-05T12:23:39.534Z,59.50
2017-08-05T12:26:07.111Z,60.10
2017-08-05T12:28:34.641Z,59.10
2017-08-05T12:31:02.918Z,59.00
2017-08-05T12:33:30.461Z,59.00
2017-08-05T12:35:58.724Z,59.10
2017-08-05T12:38:26.226Z,58.80
2017-08-05T12:40:53.765Z,58.80
2017-08-05T12:43:21.312Z,58.50
2017-08-05T12:45:48.910Z,58.50
2017-08-05T12:48:16.407Z,58.60
2017-08-05T12:50:43.990Z,58.50
2017-08-05T12:53:11.770Z,58.40
2017-08-05T12:55:40.103Z,58.20
2017-08-05T12:58:07.660Z,58.20
2017-08-05T13:00:35.288Z,58.40
2017-08-05T13:03:02.953Z,59.00
2017-08-05T13:05:30.568Z,58.50
2017-08-05T13:07:58.180Z,58.30
2017-08-05T13:10:25.702Z,58.40
2017-08-05T13:12:53.228Z,58.10
2017-08-05T13:15:21.276Z,58.20
2017-08-05T13:17:48.926Z,58.20
2017-08-05T13:20:16.513Z,58.10
2017-08-05T13:22:44.023Z,58.10
2017-08-05T13:25:11.548Z,58.10
2017-08-05T13:27:39.078Z,58.10
2017-08-05T13:30:06.597Z,58.00
2017-08-05T13:32:34.898Z,58.60
2017-08-05T13:35:02.398Z,57.80
2017-08-05T13:37:29.944Z,57.80
2017-08-05T13:39:57.475Z,57.70
2017-08-05T13:42:25.744Z,57.80
2017-08-05T13:44:54.049Z,57.80
2017-08-05T13:47:21.562Z,57.80
2017-08-05T13:49:49.090Z,57.70
2017-08-05T13:52:16.607Z,57.90
2017-08-05T13:54:44.120Z,58.00
2017-08-05T13:57:11.622Z,58.40
2017-08-05T13:59:39.877Z,58.50
2017-08-05T14:02:07.417Z,58.50
2017-08-05T14:04:35.263Z,59.00
2017-08-05T14:07:02.786Z,58.70
2017-08-05T14:09:31.095Z,60.50
2017-08-05T14:11:58.594Z,59.50
2017-08-05T14:14:26.097Z,59.70
2017-08-05T14:16:53.611Z,59.80
2017-08-05T14:19:21.182Z,59.40
2017-08-05T14:21:48.713Z,59.60
2017-08-05T14:24:16.242Z,59.50
2017-08-05T14:26:43.774Z,59.40
2017-08-05T14:29:12.070Z,59.00
2017-08-05T14:31:39.602Z,59.00
2017-08-05T14:34:07.119Z,59.00
2017-08-05T14:36:34.731Z,59.10
2017-08-05T14:39:02.269Z,59.00
2017-08-05T14:41:29.790Z,58.80
2017-08-05T14:43:57.325Z,58.70
2017-08-05T14:46:25.714Z,58.90
2017-08-05T14:48:53.244Z,58.90
2017-08-05T14:51:21.530Z,59.50
2017-08-05T14:53:49.055Z,58.60
2017-08-05T14:56:16.853Z,58.80
2017-08-05T14:58:45.143Z,58.70
2017-08-05T15:01:12.786Z,58.60
2017-08-05T15:03:40.344Z,58.80
2017-08-05T15:06:07.851Z,59.00
2017-08-05T15:08:35.414Z,58.90
2017-08-05T15:11:02.917Z,59.00
2017-08-05T15:13:30.438Z,59.40
2017-08-05T15:15:57.952Z,60.60
2017-08-05T15:18:26.214Z,60.70
2017-08-05T15:20:53.750Z,60.60
2017-08-05T15:23:21.594Z,60.10
2017-08-05T15:25:49.121Z,60.30
2017-08-05T15:28:17.458Z,60.50
2017-08-05T15:30:44.996Z,60.20
2017-08-05T15:33:12.901Z,60.60
2017-08-05T15:35:40.408Z,60.70
2017-08-05T15:38:07.960Z,60.80
2017-08-05T15:40:35.567Z,60.40
2017-08-05T15:43:03.205Z,60.40
2017-08-05T15:45:31.169Z,60.40
2017-08-05T15:47:58.704Z,60.60
2017-08-05T15:50:26.999Z,60.70
2017-08-05T15:52:54.510Z,60.60
2017-08-05T15:55:22.040Z,60.60
2017-08-05T15:57:49.668Z,60.60
2017-08-05T16:00:17.954Z,60.60
2017-08-05T16:02:45.486Z,60.50
2017-08-05T16:05:13.092Z,60.60
2017-08-05T16:07:40.711Z,60.40
2017-08-05T16:10:08.276Z,60.30
2017-08-05T16:12:35.917Z,60.10
2017-08-05T16:15:03.480Z,59.90
2017-08-05T16:17:31.162Z,59.80
2017-08-05T16:19:59.567Z,60.00
2017-08-05T16:22:27.075Z,59.90
2017-08-05T16:24:54.575Z,59.20
2017-08-05T16:27:22.114Z,59.10
2017-08-05T16:29:50.356Z,59.20
2017-08-05T16:32:17.887Z,59.20
2017-08-05T16:34:45.457Z,58.90
2017-08-05T16:37:13.038Z,58.80
2017-08-05T16:39:40.791Z,58.30
2017-08-05T16:42:08.254Z,58.20
2017-08-05T16:44:35.810Z,58.20
2017-08-05T16:47:03.426Z,58.20
2017-08-05T16:49:31.701Z,57.80
2017-08-05T16:52:00.017Z,57.20
2017-08-05T16:54:27.562Z,57.10
2017-08-05T16:56:55.077Z,57.20
2017-08-05T16:59:22.658Z,57.40
2017-08-05T17:01:50.940Z,56.90
2017-08-05T17:04:19.260Z,56.70
2017-08-05T17:06:46.850Z,56.50
2017-08-05T17:09:14.378Z,56.50
2017-08-05T17:11:41.909Z,56.10
2017-08-05T17:14:10.209Z,56.10
2017-08-05T17:16:37.759Z,56.00
2017-08-05T17:19:05.238Z,56.00
2017-08-05T17:21:32.778Z,55.70
2017-08-05T17:24:00.322Z,55.40
2017-08-05T17:26:27.830Z,55.10
2017-08-05T17:28:55.388Z,55.20
2017-08-05T17:31:22.914Z,55.10
2017-08-05T17:33:50.501Z,55.10
2017-08-05T17:36:18.024Z,55.00
2017-08-05T17:38:46.280Z,54.80
2017-08-05T17:41:14.536Z,54.70
2017-08-05T17:43:42.267Z,54.70
2017-08-05T17:46:09.835Z,54.60
2017-08-05T17:48:37.328Z,54.50
2017-08-05T17:51:04.873Z,54.30
2017-08-05T17:53:32.493Z,54.20
2017-08-05T17:56:00.020Z,54.20
2017-08-05T17:58:27.526Z,54.20
2017-08-05T18:00:55.075Z,54.20
2017-08-05T18:03:22.556Z,54.10
2017-08-05T18:05:50.046Z,54.00
2017-08-05T18:08:17.558Z,54.00
2017-08-05T18:10:45.080Z,54.00
2017-08-05T18:13:12.596Z,54.00
2017-08-05T18:15:40.161Z,54.20
2017-08-05T18:18:07.641Z,54.20
2017-08-05T18:20:35.162Z,54.10
2017-08-05T18:23:02.722Z,54.10
2017-08-05T18:25:30.250Z,54.10
2017-08-05T18:27:58.566Z,54.30
2017-08-05T18:30:26.091Z,54.20
2017-08-05T18:32:53.614Z,54.40
2017-08-05T18:35:21.161Z,54.40
2017-08-05T18:37:48.661Z,54.60
2017-08-05T18:40:16.970Z,54.70
2017-08-05T18:42:44.497Z,54.70
2017-08-05T18:45:12.836Z,54.90
2017-08-05T18:47:40.396Z,54.80
2017-08-05T18:50:08.007Z,55.00
2017-08-05T18:52:36.361Z,55.00
2017-08-05T18:55:03.910Z,55.00
2017-08-05T18:57:31.535Z,55.90
2017-08-05T19:00:00.731Z,55.30
2017-08-05T19:02:28.401Z,55.20
2017-08-05T19:04:55.906Z,55.20
2017-08-05T19:07:23.457Z,55.20
2017-08-05T19:09:50.986Z,55.30
2017-08-05T19:12:18.483Z,55.20
2017-08-05T19:14:45.994Z,55.40
2017-08-05T19:17:13.480Z,55.40
2017-08-05T19:19:41.008Z,55.40
2017-08-05T19:22:08.494Z,55.40
2017-08-05T19:24:36.146Z,55.40
2017-08-05T19:27:03.696Z,55.40
2017-08-05T19:29:31.358Z,55.50
2017-08-05T19:31:58.976Z,55.50
2017-08-05T19:34:26.488Z,55.60
2017-08-05T19:36:54.028Z,55.70
2017-08-05T19:39:21.536Z,55.70
2017-08-05T19:41:49.220Z,55.70
2017-08-05T19:44:16.763Z,55.90
2017-08-05T19:46:44.272Z,56.00
2017-08-05T19:49:11.878Z,56.10
2017-08-05T19:51:39.459Z,56.20
2017-08-05T19:54:07.741Z,57.00
2017-08-05T19:56:36.037Z,56.20
2017-08-05T19:59:04.332Z,56.10
2017-08-05T20:04:06.662Z,56.10
2017-08-05T20:06:34.225Z,56.10
2017-08-05T20:09:01.733Z,56.10
2017-08-05T20:11:29.231Z,56.20
2017-08-05T20:13:56.763Z,56.10
2017-08-05T20:16:24.288Z,56.20
2017-08-05T20:18:52.584Z,56.20
2017-08-05T20:21:20.105Z,56.10
2017-08-05T20:23:47.628Z,56.20
2017-08-05T20:26:15.113Z,56.50
2017-08-05T20:28:42.639Z,56.10
2017-08-05T20:31:10.151Z,56.20
2017-08-05T20:33:37.662Z,56.20
2017-08-05T20:36:05.152Z,56.10
2017-08-05T20:38:32.696Z,56.20
2017-08-05T20:41:00.219Z,56.00
2017-08-05T20:43:27.734Z,56.00
2017-08-05T20:45:55.261Z,56.20
2017-08-05T20:48:22.814Z,56.00
2017-08-05T20:50:50.374Z,56.30
2017-08-05T20:53:18.024Z,56.40
2017-08-05T20:55:45.799Z,56.50
2017-08-05T20:58:13.328Z,56.80
2017-08-05T21:00:41.631Z,56.80
2017-08-05T21:03:09.162Z,56.70
2017-08-05T21:05:37.499Z,56.60
2017-08-05T21:08:05.031Z,56.50
2017-08-05T21:10:32.562Z,56.50
2017-08-05T21:13:00.876Z,56.60
2017-08-05T21:15:28.377Z,56.40
2017-08-05T21:17:55.850Z,56.50
2017-08-05T21:20:24.154Z,56.80
2017-08-05T21:22:51.678Z,56.80
2017-08-05T21:25:19.220Z,56.80
2017-08-05T21:27:46.708Z,56.80
2017-08-05T21:30:15.020Z,56.70
2017-08-05T21:32:42.551Z,56.70
2017-08-05T21:35:10.062Z,56.70
2017-08-05T21:37:37.632Z,56.70
2017-08-05T21:40:05.163Z,56.70
2017-08-05T21:42:32.820Z,56.60
2017-08-05T21:45:00.334Z,56.60
2017-08-05T21:47:27.838Z,56.60
2017-08-05T21:49:55.365Z,56.60
2017-08-05T21:52:23.625Z,57.20
2017-08-05T21:54:51.156Z,56.50
2017-08-05T21:57:18.666Z,56.50
2017-08-05T21:59:46.962Z,56.50
2017-08-05T22:02:14.471Z,56.60
2017-08-05T22:04:42.000Z,56.50
2017-08-05T22:07:09.543Z,56.50
2017-08-05T22:09:37.090Z,56.50
2017-08-05T22:12:05.419Z,56.50
2017-08-05T22:14:32.917Z,56.40
2017-08-05T22:17:01.203Z,56.50
2017-08-05T22:19:29.483Z,56.60
2017-08-05T22:21:57.159Z,56.50
2017-08-05T22:24:24.679Z,56.60
2017-08-05T22:26:52.262Z,56.60
2017-08-05T22:29:20.520Z,56.60
2017-08-05T22:31:48.030Z,56.50
2017-08-05T22:34:15.575Z,56.50
2017-08-05T22:36:43.842Z,56.40
2017-08-05T22:39:12.145Z,56.50
2017-08-05T22:41:39.637Z,56.30
2017-08-05T22:44:07.177Z,56.50
2017-08-05T22:46:34.735Z,56.60
2017-08-05T22:49:02.223Z,56.60
2017-08-05T22:51:29.900Z,56.50
2017-08-05T22:53:57.420Z,57.10
2017-08-05T22:56:24.947Z,56.50
2017-08-05T22:58:52.466Z,56.30
2017-08-05T23:01:20.010Z,56.40
2017-08-05T23:03:47.698Z,56.40
2017-08-05T23:06:15.206Z,56.40
2017-08-05T23:08:42.713Z,56.50
2017-08-05T23:11:10.271Z,56.60
2017-08-05T23:13:37.770Z,56.60
2017-08-05T23:16:05.309Z,56.50
2017-08-05T23:18:32.815Z,56.60
2017-08-05T23:21:00.349Z,56.50
2017-08-05T23:23:28.630Z,56.60
2017-08-05T23:25:56.160Z,56.60
2017-08-05T23:28:23.725Z,56.60
2017-08-05T23:30:52.014Z,56.70
2017-08-05T23:33:20.376Z,56.70
2017-08-05T23:35:47.887Z,56.60
2017-08-05T23:38:15.434Z,56.60
2017-08-05T23:40:43.007Z,56.60
2017-08-05T23:43:10.543Z,56.60
2017-08-05T23:45:38.118Z,56.60
2017-08-05T23:48:05.639Z,56.60
2017-08-05T23:50:33.168Z,56.60
2017-08-05T23:53:00.666Z,56.70
2017-08-05T23:55:28.985Z,56.70
2017-08-05T23:57:56.512Z,56.70
